Time;durP1;ratioP1;P1;durP2;ratioP2;P2;SDS_P1;SDS_P2;PMS_P1;PMS_P2;Temp;Humidity;BMP_temperature;BMP_pressure;BME280_temperature;BME280_humidity;BME280_pressure;Samples;Min_cycle;Max_cycle;Signal;HPM_P1;HPM_P2
2022/05/22 00:01:58;;;;;;;6.93;5.70;;;13.50;99.90;;;-141.84;77.39;17977.03;5074049;28;20189;-60
2022/05/22 00:04:27;;;;;;;6.97;5.97;;;13.50;99.90;;;-141.84;78.12;17960.78;5074187;28;20211;-60
2022/05/22 00:06:55;;;;;;;7.37;6.13;;;13.50;99.90;;;-141.84;79.07;17948.59;5073879;28;20231;-62
2022/05/22 00:09:24;;;;;;;8.47;5.90;;;13.40;99.90;;;-141.84;77.48;17977.03;5073784;28;20201;-60
2022/05/22 00:11:52;;;;;;;7.90;6.07;;;13.50;99.90;;;-141.84;78.43;17948.59;5073816;28;20211;-60
2022/05/22 00:14:21;;;;;;;7.87;6.00;;;13.40;99.90;;;-141.84;79.31;17928.28;5073695;28;20255;-60
2022/05/22 00:16:50;;;;;;;7.23;5.87;;;13.40;99.90;;;-141.84;79.24;17966.88;5073641;28;20201;-60
2022/05/22 00:19:23;;;;;;;6.23;5.63;;;13.40;99.90;;;-141.84;80.11;17887.63;5073683;28;20209;-61
2022/05/22 00:21:52;;;;;;;7.80;7.10;;;13.30;99.90;;;-141.84;80.81;17889.66;5073732;28;20197;-60
2022/05/22 00:24:24;;;;;;;6.80;6.20;;;13.20;99.90;;;-141.84;81.19;17905.91;5073415;28;20291;-61
2022/05/22 00:26:53;;;;;;;8.23;6.83;;;13.20;99.90;;;-141.84;81.79;17891.69;5073566;28;20584;-62
2022/05/22 00:29:21;;;;;;;6.93;6.20;;;13.20;99.90;;;-141.84;82.02;17865.28;5073400;28;20204;-60
2022/05/22 00:31:51;;;;;;;8.10;6.63;;;13.10;99.90;;;-141.84;82.30;17828.72;5073509;28;20598;-61
2022/05/22 00:34:20;;;;;;;8.20;6.90;;;13.10;99.90;;;-141.84;82.63;17814.50;5073372;28;20207;-59
2022/05/22 00:36:48;;;;;;;9.07;7.17;;;13.00;99.90;;;-141.84;83.39;17800.28;5073310;28;20287;-61
2022/05/22 00:39:16;;;;;;;9.83;7.53;;;13.00;99.90;;;-141.84;83.60;17818.56;5072640;28;20228;-58
2022/05/22 00:41:50;;;;;;;7.63;6.23;;;13.00;99.90;;;-141.84;84.22;17782.00;5073430;28;20189;-59
2022/05/22 00:44:19;;;;;;;8.83;6.97;;;13.00;99.90;;;-141.84;84.71;17775.91;5072740;28;20217;-60
2022/05/22 00:46:48;;;;;;;8.30;7.30;;;12.90;99.90;;;-141.84;84.28;17775.91;5073093;28;20224;-60
2022/05/22 00:49:23;;;;;;;8.87;6.90;;;12.90;99.90;;;-141.84;84.39;17737.31;5072697;28;20204;-61
2022/05/22 00:51:57;;;;;;;8.20;6.80;;;12.90;99.90;;;-141.84;84.81;17757.63;5072826;28;20680;-61
2022/05/22 00:54:31;;;;;;;9.60;7.27;;;12.80;99.90;;;-141.84;84.64;17753.56;5072822;28;20184;-60
2022/05/22 00:57:08;;;;;;;10.30;7.57;;;12.80;99.90;;;-141.84;84.60;17753.56;5072926;28;20228;-60
2022/05/22 00:59:42;;;;;;;8.80;6.70;;;12.80;99.90;;;-141.84;84.78;17723.09;5072863;28;20200;-60
2022/05/22 01:02:13;;;;;;;8.13;6.80;;;12.80;99.90;;;-141.84;85.04;17688.56;5072837;28;20189;-59
2022/05/22 01:04:45;;;;;;;8.73;6.60;;;12.80;99.90;;;-141.84;84.96;17688.56;5072824;28;20192;-61
2022/05/22 01:07:14;;;;;;;8.53;6.97;;;12.80;99.90;;;-141.84;84.94;17710.91;5072708;28;20295;-60
2022/05/22 01:09:42;;;;;;;8.83;6.83;;;12.70;99.90;;;-141.84;83.38;17714.97;5072557;28;20197;-60
2022/05/22 01:12:16;;;;;;;11.00;6.70;;;12.80;99.90;;;-141.84;83.95;17727.16;5072537;28;20224;-59
2022/05/22 01:14:47;;;;;;;8.60;6.70;;;12.80;99.90;;;-141.84;83.45;17741.38;5072193;28;20531;-61
2022/05/22 01:17:16;;;;;;;10.63;7.13;;;12.80;99.90;;;-141.84;83.54;17725.13;5072553;28;20280;-61
2022/05/22 01:19:58;;;;;;;9.60;6.40;;;12.80;99.90;;;-141.84;84.06;17710.91;5072589;28;20284;-60
2022/05/22 01:22:28;;;;;;;8.93;7.40;;;12.80;99.90;;;-141.84;83.38;17745.44;5072377;28;20232;-60
2022/05/22 01:24:57;;;;;;;10.27;7.57;;;12.80;99.90;;;-141.84;84.09;17690.59;5072492;28;20663;-61
2022/05/22 01:27:27;;;;;;;9.30;7.30;;;12.80;99.90;;;-141.84;84.46;17704.81;5072283;28;20226;-59
2022/05/22 01:30:11;;;;;;;11.40;8.33;;;12.70;99.90;;;-141.84;84.71;17664.19;5072084;28;20716;-60
2022/05/22 01:32:42;;;;;;;10.17;7.83;;;12.70;99.90;;;-141.84;86.13;17629.66;5072017;28;20697;-60
2022/05/22 01:35:15;;;;;;;9.77;8.00;;;12.60;99.90;;;-141.84;86.96;17576.84;5072056;28;20561;-60
2022/05/22 01:37:46;;;;;;;10.17;8.10;;;12.50;99.90;;;-141.84;87.51;17507.78;5072231;28;20189;-61
2022/05/22 01:40:16;;;;;;;8.87;7.43;;;12.30;99.90;;;-141.84;88.01;17461.09;5071686;28;20200;-60
2022/05/22 01:42:45;;;;;;;13.53;8.40;;;12.30;99.90;;;-141.84;88.82;17416.41;5072418;28;20291;-60
2022/05/22 01:45:18;;;;;;;10.60;8.13;;;12.30;99.90;;;-141.84;89.00;17390.00;5072045;28;20239;-59
2022/05/22 01:47:47;;;;;;;8.90;8.00;;;12.30;99.90;;;-141.84;89.23;17339.22;5072039;28;20304;-61
2022/05/22 01:50:15;;;;;;;8.27;7.47;;;12.20;99.90;;;-141.84;89.60;17343.28;5072071;28;20626;-60
2022/05/22 01:52:45;;;;;;;12.33;8.00;;;12.10;99.90;;;-141.84;89.20;17298.59;5070928;28;20300;-60
2022/05/22 01:55:14;;;;;;;10.80;8.60;;;12.10;99.90;;;-141.84;88.79;17322.97;5071669;28;20584;-61
2022/05/22 01:57:42;;;;;;;11.27;8.40;;;12.20;99.90;;;-141.84;89.34;17266.09;5071904;28;20315;-61
2022/05/22 02:00:15;;;;;;;11.47;7.47;;;12.10;99.90;;;-141.84;88.96;17284.38;5071752;28;20196;-60
2022/05/22 02:02:43;;;;;;;9.17;7.40;;;12.20;99.90;;;-141.84;88.90;17288.44;5071915;28;20185;-61
2022/05/22 02:05:12;;;;;;;9.50;7.20;;;12.10;99.90;;;-141.84;89.06;17278.28;5072117;28;20200;-60
2022/05/22 02:10:27;;;;;;;8.23;7.37;;;12.10;99.90;;;-141.84;89.84;17213.28;5071549;28;20184;-60
2022/05/22 02:12:55;;;;;;;9.33;7.07;;;12.00;99.90;;;-141.84;88.77;17223.44;5071743;28;20200;-60
2022/05/22 02:15:23;;;;;;;10.03;7.23;;;12.10;99.90;;;-141.84;89.71;17178.75;5071572;28;20196;-60
2022/05/22 02:17:51;;;;;;;8.80;7.10;;;12.00;99.90;;;-141.84;89.54;17192.97;5071806;28;20519;-59
2022/05/22 02:20:20;;;;;;;8.70;7.17;;;12.00;99.90;;;-141.84;89.67;17199.06;5071771;28;20295;-60
2022/05/22 02:22:51;;;;;;;9.43;6.40;;;12.00;99.90;;;-141.84;90.09;17180.78;5071666;28;20209;-60
2022/05/22 02:25:25;;;;;;;11.53;7.77;;;12.00;99.90;;;-141.84;88.58;17219.38;5071777;28;20185;-60
2022/05/22 02:27:54;;;;;;;7.97;6.60;;;12.00;99.90;;;-141.84;88.64;17205.16;5071701;28;20303;-61
2022/05/22 02:30:34;;;;;;;8.13;6.63;;;12.10;99.90;;;-141.84;89.41;17188.91;5071595;28;20207;-60
2022/05/22 02:33:02;;;;;;;10.70;7.13;;;12.00;99.90;;;-141.84;88.77;17201.09;5071797;28;20281;-59
2022/05/22 02:35:30;;;;;;;8.77;6.93;;;12.10;99.90;;;-141.84;88.70;17213.28;5071664;28;20232;-60
2022/05/22 02:37:59;;;;;;;7.83;6.53;;;12.00;99.90;;;-141.84;88.88;17205.16;5071444;28;20203;-60
2022/05/22 02:40:33;;;;;;;8.70;6.53;;;12.00;99.90;;;-141.84;89.20;17125.97;5071275;28;20718;-59
2022/05/22 02:43:03;;;;;;;9.37;7.13;;;12.00;99.90;;;-141.84;90.03;17117.84;5071506;28;20265;-60
2022/05/22 02:45:34;;;;;;;9.27;6.80;;;11.90;99.90;;;-141.84;89.73;17128.00;5071936;28;20203;-61
2022/05/22 02:48:02;;;;;;;10.10;7.77;;;11.90;99.90;;;-141.84;90.53;17097.53;5071513;28;20205;-60
2022/05/22 02:50:32;;;;;;;10.27;8.00;;;11.80;99.90;;;-141.84;91.05;17081.28;5071435;28;20203;-60
2022/05/22 02:53:00;;;;;;;9.27;8.23;;;11.80;99.90;;;-141.84;91.03;17067.06;5071328;28;20583;-60
2022/05/22 02:55:29;;;;;;;9.23;8.00;;;11.80;99.90;;;-141.84;91.49;17048.78;5071493;28;20225;-61
2022/05/22 02:57:57;;;;;;;10.80;8.20;;;11.70;99.90;;;-141.84;92.26;17020.34;5071439;28;20203;-60
2022/05/22 03:00:30;;;;;;;10.00;8.50;;;11.70;99.90;;;-141.84;92.28;16993.94;5071361;28;20213;-59
2022/05/22 03:02:59;;;;;;;12.70;9.83;;;11.60;99.90;;;-141.84;93.11;16965.50;5072446;28;20188;-60
2022/05/22 03:06:37;;;;;;;11.77;9.63;;;11.60;99.90;;;-141.84;93.59;16957.41;5075087;28;20222;-59
2022/05/22 03:08:17;;;;;;;11.00;9.83;;;11.60;99.90;;;-141.84;93.65;16967.53;5074424;28;20611;-61
2022/05/22 03:10:45;;;;;;;11.63;10.43;;;11.60;99.90;;;-141.84;94.10;16868.03;5074868;28;20197;-60
2022/05/22 03:13:15;;;;;;;15.63;13.47;;;11.60;99.90;;;-141.84;93.49;16861.94;5074412;28;20699;-60
2022/05/22 03:15:44;;;;;;;18.13;14.43;;;11.60;99.90;;;-141.84;93.47;16855.84;5074796;28;20197;-60
2022/05/22 03:18:12;;;;;;;18.83;15.07;;;11.60;99.90;;;-141.84;93.88;16827.41;5074811;28;20616;-59
2022/05/22 03:20:41;;;;;;;17.03;15.23;;;11.50;99.90;;;-141.84;94.43;16817.25;5075107;28;20231;-60
2022/05/22 03:23:09;;;;;;;18.53;15.70;;;11.60;99.90;;;-141.84;94.56;16774.63;5074518;28;20217;-60
2022/05/22 03:25:37;;;;;;;17.87;15.13;;;11.60;99.90;;;-141.84;94.33;16807.13;5074630;28;20296;-60
2022/05/22 03:28:05;;;;;;;17.27;14.37;;;11.60;99.90;;;-141.84;93.97;16792.91;5074501;28;20217;-59
2022/05/22 03:30:33;;;;;;;16.53;13.23;;;11.60;99.90;;;-141.84;94.33;16756.34;5074359;28;20299;-60
2022/05/22 03:33:03;;;;;;;14.20;12.57;;;11.60;99.90;;;-141.84;93.97;16780.72;5074643;28;20631;-59
2022/05/22 03:35:31;;;;;;;15.37;13.00;;;11.60;99.90;;;-141.84;94.04;16792.91;5074253;28;20212;-61
2022/05/22 03:37:59;;;;;;;14.27;12.13;;;11.70;99.90;;;-141.84;94.38;16729.94;5074429;28;20291;-60
2022/05/22 03:40:27;;;;;;;16.60;12.20;;;11.70;99.90;;;-141.84;94.09;16742.13;5074179;28;20744;-61
2022/05/22 03:42:55;;;;;;;16.00;11.13;;;11.70;99.90;;;-141.84;93.24;16805.09;5074361;28;20619;-59
2022/05/22 03:45:23;;;;;;;13.50;10.87;;;11.70;99.90;;;-141.84;92.37;16882.25;5074238;28;20201;-59
2022/05/22 03:47:51;;;;;;;13.60;10.50;;;11.80;99.90;;;-141.84;92.00;16847.72;5073920;28;20247;-60
2022/05/22 03:50:24;;;;;;;14.77;10.83;;;11.80;99.90;;;-141.84;91.40;16908.66;5074219;28;20201;-60
2022/05/22 03:52:51;;;;;;;12.93;9.67;;;11.90;99.90;;;-141.84;90.32;16963.47;5074026;28;20201;-60
2022/05/22 03:55:19;;;;;;;11.80;9.83;;;12.00;99.90;;;-141.84;90.32;17006.13;5073849;28;20640;-60
2022/05/22 03:57:48;;;;;;;11.77;9.30;;;12.00;99.90;;;-141.84;90.07;16937.09;5074074;28;20201;-60
2022/05/22 04:00:20;;;;;;;13.27;9.27;;;12.00;99.90;;;-141.84;90.84;16918.81;5073959;28;20201;-59
2022/05/22 04:02:48;;;;;;;11.03;9.03;;;11.90;99.90;;;-141.84;90.91;16884.28;5074017;28;20308;-60
2022/05/22 04:05:17;;;;;;;12.93;9.37;;;11.90;99.90;;;-141.84;90.59;16906.63;5074065;28;20228;-60
2022/05/22 04:07:49;;;;;;;12.07;9.20;;;11.90;99.90;;;-141.84;89.62;16998.00;5073603;28;20711;-61
2022/05/22 04:10:19;;;;;;;11.27;9.17;;;12.00;99.90;;;-141.84;89.27;16989.88;5073921;28;20255;-61
2022/05/22 04:12:47;;;;;;;9.87;8.27;;;12.00;99.90;;;-141.84;90.32;16943.19;5073953;28;20200;-60
2022/05/22 04:15:20;;;;;;;13.77;9.37;;;12.10;99.90;;;-141.84;89.48;17008.16;5072950;28;20206;-60
2022/05/22 04:17:49;;;;;;;9.47;7.47;;;12.10;99.90;;;-141.84;88.87;17042.69;5073533;28;20181;-61
2022/05/22 04:20:19;;;;;;;10.27;8.30;;;12.20;99.90;;;-141.84;89.27;17010.19;5073782;28;20236;-60
2022/05/22 04:25:34;;;;;;;8.80;7.80;;;12.20;99.90;;;-141.84;90.01;16953.34;5073564;28;20198;-59
2022/05/22 04:28:03;;;;;;;10.40;8.00;;;12.20;99.90;;;-141.84;90.29;16961.44;5073733;28;20220;-59
2022/05/22 04:30:32;;;;;;;10.70;7.60;;;12.20;99.90;;;-141.84;90.01;16973.63;5073296;28;20236;-60
2022/05/22 04:33:00;;;;;;;12.23;7.90;;;12.20;99.90;;;-141.84;88.65;17071.13;5073341;28;20308;-60
2022/05/22 04:35:29;;;;;;;9.57;6.87;;;12.30;99.90;;;-141.84;88.32;17063.00;5073220;28;20287;-61
2022/05/22 04:38:03;;;;;;;7.73;6.57;;;12.40;99.90;;;-141.84;87.26;17125.97;5073126;28;20287;-59
2022/05/22 04:40:31;;;;;;;8.80;6.27;;;12.50;99.90;;;-141.84;85.95;17257.97;5072708;28;20694;-60
2022/05/22 04:42:59;;;;;;;8.93;6.60;;;12.60;99.90;;;-141.84;83.29;17383.91;5072875;28;20694;-61
2022/05/22 04:45:27;;;;;;;8.00;6.27;;;12.70;99.90;;;-141.84;82.81;17489.50;5072847;28;20566;-61
2022/05/22 04:47:55;;;;;;;6.60;6.00;;;13.00;99.90;;;-141.84;82.82;17446.88;5073034;28;20287;-61
2022/05/22 04:50:24;;;;;;;6.87;5.77;;;13.20;99.90;;;-141.84;82.60;17477.31;5073022;28;20196;-59
2022/05/22 04:52:52;;;;;;;8.50;5.63;;;13.40;99.90;;;-141.84;76.33;17818.56;5072801;28;20223;-60
2022/05/22 04:55:22;;;;;;;7.75;5.03;;;14.10;99.90;;;-141.84;69.16;18186.25;5072856;28;20295;-60
2022/05/22 04:57:50;;;;;;;10.00;4.55;;;15.20;99.90;;;-141.84;60.38;18535.69;5072836;28;20193;-60
2022/05/22 05:00:19;;;;;;;7.82;4.60;;;16.60;99.90;;;-141.84;55.70;18767.31;5072717;28;20211;-61
2022/05/22 05:02:47;;;;;;;5.95;4.20;;;17.10;99.90;;;-141.84;56.30;18771.38;5072759;28;20204;-59
2022/05/22 05:05:15;;;;;;;4.90;3.33;;;17.30;99.90;;;-141.84;56.75;18759.19;5072932;28;20196;-60
2022/05/22 05:07:43;;;;;;;6.50;4.35;;;17.70;99.90;;;-141.84;54.75;18846.56;5072778;28;20207;-61
2022/05/22 05:10:13;;;;;;;6.13;4.53;;;17.90;99.90;;;-141.84;49.12;19013.16;5072224;28;20311;-60
2022/05/22 05:12:44;;;;;;;5.20;4.15;;;18.40;99.90;;;-141.84;47.58;19053.81;5072675;28;20306;-59
2022/05/22 05:15:15;;;;;;;5.35;3.78;;;18.40;99.90;;;-141.84;48.81;18905.47;5072493;28;20185;-60
2022/05/22 05:17:45;;;;;;;6.07;4.43;;;18.00;99.90;;;-141.84;51.52;18793.72;5072284;28;20185;-61
2022/05/22 05:20:18;;;;;;;5.50;4.32;;;17.40;99.90;;;-141.84;50.36;18836.41;5072446;28;20196;-60
2022/05/22 05:22:46;;;;;;;8.80;4.45;;;17.20;99.90;;;-141.84;49.59;18899.38;5072372;28;20652;-60
2022/05/22 05:25:17;;;;;;;4.57;4.10;;;17.30;99.90;;;-141.84;47.66;19009.09;5072308;28;20612;-60
2022/05/22 05:27:53;;;;;;;4.78;3.70;;;17.60;99.90;;;-141.84;48.33;18942.06;5072380;28;20195;-61
2022/05/22 05:30:21;;;;;;;6.28;4.00;;;17.80;99.90;;;-141.84;49.99;18846.56;5071873;28;20604;-59
2022/05/22 05:32:54;;;;;;;6.43;3.38;;;17.60;99.90;;;-141.84;52.37;18742.94;5072321;28;20204;-60
2022/05/22 05:35:23;;;;;;;7.05;4.05;;;17.60;99.90;;;-141.84;53.73;18696.19;5072356;28;20267;-60
2022/05/22 05:37:51;;;;;;;6.05;3.60;;;17.20;99.90;;;-141.84;53.80;18639.31;5071844;28;20291;-60
2022/05/22 05:40:19;;;;;;;5.45;3.33;;;17.10;99.90;;;-141.84;54.52;18647.44;5072049;28;20330;-60
2022/05/22 05:42:48;;;;;;;6.32;3.35;;;17.20;99.90;;;-141.84;54.20;18637.28;5072158;28;20201;-61
2022/05/22 05:45:18;;;;;;;8.20;3.30;;;17.00;99.90;;;-141.84;53.72;18625.09;5072002;28;20200;-61
2022/05/22 05:47:47;;;;;;;5.57;3.00;;;17.00;99.90;;;-141.84;54.64;18655.56;5072100;28;20197;-60
2022/05/22 05:50:20;;;;;;;5.50;2.75;;;16.90;99.90;;;-141.84;54.46;18637.28;5071932;28;20331;-61
2022/05/22 05:52:49;;;;;;;5.45;2.90;;;17.00;99.90;;;-141.84;54.67;18621.03;5071661;28;20214;-60
2022/05/22 05:55:18;;;;;;;3.88;2.22;;;17.20;99.90;;;-141.84;54.21;18651.50;5071735;28;20205;-58
2022/05/22 05:58:06;;;;;;;3.97;2.08;;;17.30;99.90;;;-141.84;50.80;18744.97;5071813;28;20208;-62
2022/05/22 06:00:56;;;;;;;3.30;2.10;;;17.50;99.90;;;-141.84;51.54;18742.94;5071677;28;20572;-61
2022/05/22 06:03:24;;;;;;;3.00;2.05;;;17.50;99.90;;;-141.84;50.55;18783.56;5071412;28;20236;-59
2022/05/22 06:05:52;;;;;;;3.13;2.10;;;17.60;99.90;;;-141.84;51.20;18757.16;5071684;28;20196;-60
2022/05/22 06:08:20;;;;;;;4.55;2.42;;;17.50;99.90;;;-141.84;50.56;18742.94;5071063;28;20197;-60
2022/05/22 06:10:48;;;;;;;3.17;2.22;;;17.40;99.90;;;-141.84;52.14;18679.94;5071326;28;20243;-59
2022/05/22 06:13:16;;;;;;;6.63;2.85;;;17.10;99.90;;;-141.84;53.42;18651.50;5071513;28;20287;-60
2022/05/22 06:15:44;;;;;;;5.28;2.35;;;16.80;99.90;;;-141.84;53.98;18631.19;5071365;28;20210;-60
2022/05/22 06:18:13;;;;;;;3.92;2.30;;;16.70;99.90;;;-141.84;52.96;18651.50;5071113;28;20702;-61
2022/05/22 06:20:41;;;;;;;4.35;2.08;;;16.80;99.90;;;-141.84;51.70;18702.28;5071339;28;20228;-60
2022/05/22 06:23:09;;;;;;;4.78;2.00;;;16.80;99.90;;;-141.84;52.77;18647.44;5071128;28;20205;-61
2022/05/22 06:25:39;;;;;;;3.28;2.10;;;16.90;99.90;;;-141.84;51.07;18694.16;5071507;28;20312;-60
2022/05/22 06:28:07;;;;;;;3.38;1.52;;;16.80;99.90;;;-141.84;50.46;18724.66;5071397;28;20191;-60
2022/05/22 06:30:35;;;;;;;4.30;2.05;;;16.90;99.90;;;-141.84;50.00;18757.16;5071166;28;20307;-59
2022/05/22 06:33:08;;;;;;;4.00;1.90;;;17.00;99.90;;;-141.84;49.64;18765.28;5071352;28;20207;-61
2022/05/22 06:35:39;;;;;;;3.13;1.70;;;17.00;99.90;;;-141.84;50.95;18720.59;5071302;28;20271;-60
2022/05/22 06:38:07;;;;;;;5.10;2.17;;;17.20;99.90;;;-141.84;49.78;18763.25;5072145;28;20217;-60
2022/05/22 06:40:37;;;;;;;5.05;2.42;;;17.10;99.90;;;-141.84;49.92;18730.75;5074711;28;20215;-60
2022/05/22 06:43:05;;;;;;;4.60;1.95;;;17.30;99.90;;;-141.84;50.96;18785.59;5075024;28;20201;-60
2022/05/22 06:45:33;;;;;;;4.15;2.10;;;17.30;99.90;;;-141.84;50.69;18755.13;5075047;28;20235;-59
2022/05/22 06:48:01;;;;;;;6.57;2.33;;;17.30;99.90;;;-141.84;50.73;18757.16;5074978;28;20201;-62
2022/05/22 06:50:29;;;;;;;4.32;2.20;;;17.40;99.90;;;-141.84;50.04;18753.09;5074741;28;20221;-60
2022/05/22 06:52:59;;;;;;;7.57;2.50;;;17.50;99.90;;;-141.84;50.17;18807.94;5074556;28;20217;-60
2022/05/22 06:55:26;;;;;;;4.95;2.10;;;17.60;99.90;;;-141.84;49.05;18834.38;5074609;28;20211;-59
2022/05/22 06:57:58;;;;;;;2.42;1.60;;;17.70;99.90;;;-141.84;48.98;18832.34;5074810;28;20570;-60
2022/05/22 07:00:27;;;;;;;6.53;2.50;;;17.80;99.90;;;-141.84;49.59;18761.22;5074644;28;20277;-60
2022/05/22 07:02:55;;;;;;;5.63;1.98;;;17.50;99.90;;;-141.84;49.15;18789.66;5074508;28;20621;-60
2022/05/22 07:05:24;;;;;;;3.35;1.98;;;17.50;99.90;;;-141.84;50.06;18769.34;5074654;28;20204;-60
2022/05/22 07:07:52;;;;;;;3.88;1.80;;;17.50;99.90;;;-141.84;49.29;18753.09;5074520;28;20273;-60
2022/05/22 07:11:38;;;;;;;4.35;2.00;;;17.30;99.90;;;-141.84;49.69;18749.03;5074474;28;20221;-59
2022/05/22 07:13:11;;;;;;;4.28;2.13;;;17.30;99.90;;;-141.84;50.78;18724.66;5074571;28;20205;-60
2022/05/22 07:15:39;;;;;;;3.28;1.92;;;17.40;99.90;;;-141.84;49.60;18789.66;5074636;28;20292;-60
2022/05/22 07:18:08;;;;;;;5.65;2.28;;;17.30;99.90;;;-141.84;49.50;18818.09;5074697;28;20203;-60
2022/05/22 07:20:36;;;;;;;3.88;1.95;;;17.40;99.90;;;-141.84;49.92;18783.56;5074738;28;20236;-60
2022/05/22 07:23:04;;;;;;;4.55;2.25;;;17.30;99.90;;;-141.84;49.55;18797.78;5074048;28;20220;-61
2022/05/22 07:25:33;;;;;;;3.45;1.70;;;17.20;99.90;;;-141.84;49.99;18781.53;5074262;28;20250;-60
2022/05/22 07:28:03;;;;;;;5.28;2.28;;;17.30;99.90;;;-141.84;50.24;18730.75;5074539;28;20206;-60
2022/05/22 07:30:33;;;;;;;6.13;1.90;;;17.20;99.90;;;-141.84;50.44;18777.47;5073772;28;20267;-60
2022/05/22 07:33:01;;;;;;;3.03;1.60;;;17.20;99.90;;;-141.84;51.38;18732.78;5074444;28;20219;-60
2022/05/22 07:35:29;;;;;;;3.05;2.03;;;17.30;99.90;;;-141.84;50.05;18779.50;5073899;28;20567;-59
2022/05/22 07:37:57;;;;;;;3.40;1.90;;;17.40;99.90;;;-141.84;49.36;18785.59;5074186;28;20201;-60
2022/05/22 07:40:25;;;;;;;3.63;1.88;;;17.40;99.90;;;-141.84;49.60;18789.66;5073913;28;20204;-60
2022/05/22 07:42:54;;;;;;;3.92;1.77;;;17.50;99.90;;;-141.84;49.04;18765.28;5074207;28;20231;-61
2022/05/22 07:45:24;;;;;;;5.78;2.22;;;17.50;99.90;;;-141.84;49.91;18789.66;5073699;28;20307;-61
2022/05/22 07:47:53;;;;;;;3.67;1.88;;;17.30;99.90;;;-141.84;50.12;18730.75;5073780;28;20641;-59
2022/05/22 07:50:21;;;;;;;3.95;1.65;;;17.30;99.90;;;-141.84;49.53;18757.16;5072656;28;20224;-60
2022/05/22 07:52:50;;;;;;;3.78;1.90;;;17.40;99.90;;;-141.84;48.95;18816.06;5074052;28;20214;-60
2022/05/22 07:55:21;;;;;;;4.65;2.17;;;17.50;99.90;;;-141.84;49.00;18809.97;5073950;28;20201;-60
2022/05/22 07:57:49;;;;;;;5.00;2.00;;;17.50;99.90;;;-141.84;49.14;18820.16;5073639;28;20228;-60
2022/05/22 08:00:21;;;;;;;5.20;2.15;;;17.60;99.90;;;-141.84;48.74;18846.56;5073414;28;20199;-59
2022/05/22 08:02:49;;;;;;;3.67;2.00;;;17.60;99.90;;;-141.84;47.98;18891.25;5073516;28;20184;-60
2022/05/22 08:05:20;;;;;;;3.20;2.05;;;17.70;99.90;;;-141.84;47.41;18872.97;5073817;28;20204;-61
2022/05/22 08:07:48;;;;;;;4.88;2.28;;;17.80;99.90;;;-141.84;46.99;18911.56;5073747;28;20189;-61
2022/05/22 08:10:18;;;;;;;3.40;1.98;;;18.00;99.90;;;-141.84;47.65;18864.84;5073531;28;20474;-60
2022/05/22 08:12:49;;;;;;;4.40;1.88;;;18.00;99.90;;;-141.84;47.42;18877.03;5073881;28;20196;-59
2022/05/22 08:15:23;;;;;;;4.60;2.25;;;18.00;99.90;;;-141.84;46.67;18905.47;5073025;28;20192;-62
2022/05/22 08:17:51;;;;;;;5.38;2.55;;;18.10;99.90;;;-141.84;46.29;18942.06;5053049;28;20192;-61
2022/05/22 08:20:21;;;;;;;4.35;1.98;;;18.20;99.90;;;-141.84;46.24;18974.56;5053846;28;20559;-61
2022/05/22 08:22:56;;;;;;;5.97;2.15;;;18.10;99.90;;;-141.84;45.75;18960.34;5070433;28;20287;-61
2022/05/22 08:25:27;;;;;;;5.78;2.30;;;18.30;99.90;;;-141.84;46.20;18950.19;5074120;28;20196;-60
2022/05/22 08:27:56;;;;;;;4.90;2.20;;;18.30;99.90;;;-141.84;44.85;19037.56;5073561;28;20185;-59
2022/05/22 08:30:29;;;;;;;4.47;2.28;;;18.50;99.90;;;-141.84;45.83;19031.47;5071462;28;20730;-52
2022/05/22 08:32:58;;;;;;;4.82;2.53;;;18.70;99.90;;;-141.84;43.65;19143.22;5070570;28;20224;-53
2022/05/22 08:35:32;;;;;;;6.47;2.42;;;19.00;99.90;;;-141.84;44.04;19086.31;5073404;28;20656;-54
2022/05/22 08:38:00;;;;;;;4.03;2.22;;;19.10;99.90;;;-141.84;44.55;19074.13;5073230;28;20193;-54
2022/05/22 08:40:39;;;;;;;5.13;2.15;;;19.00;99.90;;;-141.84;44.72;19074.13;5066688;28;20692;-57
2022/05/22 08:43:13;;;;;;;5.22;1.80;;;18.70;99.90;;;-141.84;45.86;19007.06;5072007;28;20287;-54
2022/05/22 08:45:46;;;;;;;3.95;2.05;;;18.60;99.90;;;-141.84;46.55;18976.59;5072512;28;20196;-50
2022/05/22 08:48:27;;;;;;;3.83;2.25;;;18.50;99.90;;;-141.84;45.15;19021.31;5072318;28;20208;-50
2022/05/22 08:50:59;;;;;;;5.18;2.70;;;18.50;99.90;;;-141.84;44.93;19051.78;5072547;28;20212;-50
2022/05/22 08:53:35;;;;;;;5.70;2.70;;;18.70;99.90;;;-141.84;44.45;19070.06;5072451;28;20191;-53
2022/05/22 08:59:05;;;;;;;4.68;2.55;;;19.00;99.90;;;-141.84;43.38;19118.84;5072199;28;20185;-53
2022/05/22 09:01:44;;;;;;;5.05;2.40;;;19.10;99.90;;;-141.84;43.64;19147.28;5072389;28;20189;-54
2022/05/22 09:04:30;;;;;;;5.28;2.28;;;19.00;99.90;;;-141.84;43.65;19143.22;5072487;28;20214;-49
2022/05/22 09:07:15;;;;;;;3.17;1.60;;;19.20;99.90;;;-141.84;43.95;19086.31;5072231;28;20193;-54
2022/05/22 09:09:47;;;;;;;4.32;1.80;;;19.10;99.90;;;-141.84;43.59;19143.22;5072221;28;20284;-51
2022/05/22 09:12:41;;;;;;;4.07;2.25;;;19.10;99.90;;;-141.84;43.08;19139.16;5072056;28;20205;-53
2022/05/22 09:15:19;;;;;;;3.10;2.03;;;19.10;99.90;;;-141.84;43.46;19147.28;5071724;28;20189;-51
2022/05/22 09:18:00;;;;;;;5.50;2.08;;;19.00;99.90;;;-141.84;44.32;19041.63;5069456;28;20201;-52
2022/05/22 09:20:47;;;;;;;6.03;2.45;;;18.90;99.90;;;-141.84;44.04;19122.91;5072064;28;20242;-51
2022/05/22 09:23:38;;;;;;;4.68;2.00;;;18.90;99.90;;;-141.84;44.87;19092.41;5071805;28;20185;-52
2022/05/22 09:26:11;;;;;;;4.85;2.20;;;19.00;99.90;;;-141.84;44.16;19074.13;5072004;28;20192;-54
2022/05/22 09:28:56;;;;;;;3.50;1.70;;;19.00;99.90;;;-141.84;43.74;19110.72;5071414;28;20708;-52
2022/05/22 09:31:41;;;;;;;4.95;2.22;;;19.10;99.90;;;-141.84;41.41;19281.41;5071882;28;20208;-53
2022/05/22 09:34:22;;;;;;;3.72;2.20;;;19.40;99.90;;;-141.84;41.15;19279.38;5071933;28;20189;-50
2022/05/22 09:37:09;;;;;;;3.70;2.00;;;19.60;99.90;;;-141.84;41.84;19273.28;5070499;28;20565;-51
2022/05/22 09:40:19;;;;;;;3.65;2.03;;;19.80;99.90;;;-141.84;41.54;19242.78;5071152;28;20205;-53
2022/05/22 09:43:28;;;;;;;4.93;2.35;;;19.60;99.90;;;-141.84;43.38;19145.25;5055303;28;20196;-54
2022/05/22 09:46:19;;;;;;;2.90;1.75;;;19.30;99.90;;;-141.84;45.32;19049.75;5065969;28;20291;-52
2022/05/22 09:49:20;;;;;;;3.03;2.08;;;19.00;99.90;;;-141.84;46.12;19005.03;5056890;28;20609;-53
2022/05/22 09:52:01;;;;;;;3.10;2.30;;;18.60;99.90;;;-141.84;46.12;18992.84;5071035;28;20696;-51
2022/05/22 09:54:53;;;;;;;5.97;2.97;;;18.50;99.90;;;-141.84;45.53;19047.72;5071040;28;20663;-53
2022/05/22 09:57:52;;;;;;;4.40;2.58;;;18.50;99.90;;;-141.84;45.88;19025.38;5071337;28;20215;-50
2022/05/22 10:00:25;;;;;;;5.65;2.70;;;18.60;99.90;;;-141.84;44.37;19057.88;5071112;28;20204;-53
2022/05/22 10:03:04;;;;;;;4.10;2.58;;;18.70;99.90;;;-141.84;42.27;19167.59;5071323;28;20185;-53
2022/05/22 10:05:47;;;;;;;6.20;2.75;;;18.90;99.90;;;-141.84;41.80;19171.66;5071406;28;20546;-54
2022/05/22 10:08:36;;;;;;;5.03;2.45;;;19.10;99.90;;;-141.84;41.89;19218.41;5065579;28;20197;-52
2022/05/22 10:11:14;;;;;;;5.13;2.88;;;19.30;99.90;;;-141.84;41.02;19267.16;5069719;28;20209;-50
2022/05/22 10:14:14;;;;;;;4.28;2.53;;;19.50;99.90;;;-141.84;40.14;19330.16;5069584;28;20200;-55
2022/05/22 10:17:05;;;;;;;3.53;2.35;;;19.80;99.90;;;-141.84;40.52;19315.94;5068803;28;20211;-52
2022/05/22 10:19:47;;;;;;;2.80;2.42;;;19.80;99.90;;;-141.84;40.22;19328.13;5071111;28;20627;-53
2022/05/22 10:22:28;;;;;;;3.58;2.50;;;20.00;99.90;;;-141.84;40.13;19385.03;5071534;28;20196;-49
2022/05/22 10:25:13;;;;;;;4.00;2.55;;;20.00;99.90;;;-141.84;40.32;19293.59;5071161;28;20181;-52
2022/05/22 10:27:53;;;;;;;3.25;2.15;;;20.00;99.90;;;-141.84;41.70;19238.72;5071099;28;20189;-53
2022/05/22 10:30:31;;;;;;;5.30;2.50;;;19.70;99.90;;;-141.84;42.04;19185.88;5071185;28;20189;-56
2022/05/22 10:33:11;;;;;;;4.00;2.90;;;19.50;99.90;;;-141.84;41.62;19210.28;5070967;28;20204;-52
2022/05/22 10:35:48;;;;;;;4.22;2.88;;;19.40;99.90;;;-141.84;41.66;19173.69;5070934;28;20660;-54